Time;durP1;ratioP1;P1;durP2;ratioP2;P2;SDS_P1;SDS_P2;PMS_P1;PMS_P2;Temp;Humidity;BMP_temperature;BMP_pressure;BME280_temperature;BME280_humidity;BME280_pressure;Samples;Min_cycle;Max_cycle;Signal;HPM_P1;HPM_P2
2022/11/27 00:01:41;;;;;;;26.58;8.35;;;5.40;99.90;;;;;;5054865;28;20131;-32
2022/11/27 00:04:09;;;;;;;25.00;7.95;;;5.30;99.90;;;;;;5054513;28;20461;-32
2022/11/27 00:06:36;;;;;;;31.63;7.28;;;5.30;99.90;;;;;;5053248;28;20087;-32
2022/11/27 00:09:05;;;;;;;32.45;8.27;;;5.30;99.90;;;;;;5054749;28;20060;-31
2022/11/27 00:11:31;;;;;;;29.25;8.68;;;5.40;99.90;;;;;;5054644;28;20048;-31
2022/11/27 00:13:58;;;;;;;31.38;7.53;;;5.40;99.90;;;;;;5055456;28;20080;-32
2022/11/27 00:16:25;;;;;;;38.50;8.18;;;5.40;99.90;;;;;;5054969;28;20124;-33
2022/11/27 00:18:51;;;;;;;33.05;7.72;;;5.40;99.90;;;;;;5054543;28;20494;-33
2022/11/27 00:21:25;;;;;;;31.38;8.25;;;5.40;99.90;;;;;;5054754;28;20471;-32
2022/11/27 00:23:52;;;;;;;23.17;7.82;;;5.30;99.90;;;;;;5054823;28;20051;-32
2022/11/27 00:26:19;;;;;;;26.75;7.85;;;5.40;99.90;;;;;;5055153;28;20041;-32
2022/11/27 00:28:45;;;;;;;27.30;7.53;;;5.40;99.90;;;;;;5054453;28;20092;-32
2022/11/27 00:31:16;;;;;;;36.85;8.50;;;5.40;99.90;;;;;;5053880;28;20543;-32
2022/11/27 00:33:42;;;;;;;27.02;7.55;;;5.30;99.90;;;;;;5054938;28;20085;-32
2022/11/27 00:36:08;;;;;;;25.40;7.28;;;5.40;99.90;;;;;;5054296;28;20149;-32
2022/11/27 00:38:35;;;;;;;21.58;6.78;;;5.40;99.90;;;;;;5054220;28;20056;-32
2022/11/27 00:41:13;;;;;;;28.60;8.50;;;5.40;99.90;;;;;;5054170;28;20037;-32
2022/11/27 00:43:39;;;;;;;27.65;7.53;;;5.40;99.90;;;;;;5054405;28;20052;-32
2022/11/27 00:46:05;;;;;;;29.60;8.10;;;5.30;99.90;;;;;;5053989;28;20096;-32
2022/11/27 00:48:31;;;;;;;37.20;8.55;;;5.20;99.90;;;;;;5054002;28;20040;-32
2022/11/27 00:51:03;;;;;;;32.15;7.70;;;5.20;99.90;;;;;;5054001;28;20048;-32
2022/11/27 00:53:29;;;;;;;24.38;7.88;;;5.30;99.90;;;;;;5054358;28;20045;-32
2022/11/27 00:55:56;;;;;;;23.10;7.55;;;5.30;99.90;;;;;;5054064;28;20061;-32
2022/11/27 00:58:22;;;;;;;25.58;8.60;;;5.20;99.90;;;;;;5053976;28;20127;-32
2022/11/27 01:01:04;;;;;;;22.48;7.35;;;5.10;99.90;;;;;;5052929;28;20098;-31
2022/11/27 01:03:31;;;;;;;27.05;9.07;;;5.00;99.90;;;;;;5053552;28;20487;-32
2022/11/27 01:06:01;;;;;;;26.13;8.45;;;5.00;99.90;;;;;;5053712;28;20091;-31
2022/11/27 01:08:26;;;;;;;31.88;9.20;;;5.00;99.90;;;;;;5053756;28;20045;-32
2022/11/27 01:10:55;;;;;;;24.88;8.27;;;5.00;99.90;;;;;;5054247;28;20128;-32
2022/11/27 01:13:27;;;;;;;26.30;8.63;;;4.80;99.90;;;;;;5054220;28;20106;-32
2022/11/27 01:16:05;;;;;;;25.58;8.93;;;4.90;99.90;;;;;;5053760;28;20090;-32
2022/11/27 01:18:31;;;;;;;32.47;7.70;;;4.90;99.90;;;;;;5053625;28;20049;-32
2022/11/27 01:20:57;;;;;;;24.25;8.82;;;4.80;99.90;;;;;;5053629;28;20052;-32
2022/11/27 01:23:23;;;;;;;21.77;8.00;;;4.80;99.90;;;;;;5053555;28;20045;-31
2022/11/27 01:25:49;;;;;;;27.63;9.35;;;4.90;99.90;;;;;;5053464;28;20048;-32
2022/11/27 01:28:15;;;;;;;27.20;8.18;;;4.80;99.90;;;;;;5053506;28;20187;-31
2022/11/27 01:30:41;;;;;;;24.42;7.75;;;4.80;99.90;;;;;;5053486;28;20056;-31
2022/11/27 01:33:07;;;;;;;26.95;9.00;;;4.80;99.90;;;;;;5053776;28;20044;-31
2022/11/27 01:35:32;;;;;;;28.45;8.20;;;4.90;99.90;;;;;;5054294;28;20045;-32
2022/11/27 01:37:58;;;;;;;22.23;7.97;;;4.80;99.90;;;;;;5053734;28;20175;-32
2022/11/27 01:40:24;;;;;;;24.75;8.70;;;4.70;99.90;;;;;;5053736;28;20501;-32
2022/11/27 01:42:50;;;;;;;25.85;8.25;;;4.80;99.90;;;;;;5053429;28;20052;-31
2022/11/27 01:45:19;;;;;;;26.10;8.20;;;4.70;99.90;;;;;;5052248;28;20049;-33
2022/11/27 01:47:48;;;;;;;26.75;8.25;;;4.70;99.90;;;;;;5053908;28;20048;-32
2022/11/27 01:50:22;;;;;;;18.33;8.00;;;4.70;99.90;;;;;;5053372;28;20049;-32
2022/11/27 01:52:51;;;;;;;36.28;8.55;;;4.70;99.90;;;;;;5052672;28;20107;-31
2022/11/27 01:55:34;;;;;;;28.77;8.02;;;4.70;99.90;;;;;;5053278;28;20495;-32
2022/11/27 01:58:12;;;;;;;24.75;7.97;;;4.70;99.90;;;;;;5053990;28;20068;-31
2022/11/27 02:00:38;;;;;;;24.48;8.80;;;4.60;99.90;;;;;;5053279;28;20056;-32
2022/11/27 02:03:05;;;;;;;29.33;8.02;;;4.60;99.90;;;;;;5053763;28;20045;-32
2022/11/27 02:05:32;;;;;;;19.50;7.38;;;4.70;99.90;;;;;;5053127;28;20114;-32
2022/11/27 02:08:01;;;;;;;21.42;7.80;;;4.70;99.90;;;;;;5053240;28;20056;-32
2022/11/27 02:10:38;;;;;;;27.42;8.02;;;4.80;99.90;;;;;;5053124;28;20120;-31
2022/11/27 02:13:12;;;;;;;20.23;6.97;;;4.80;99.90;;;;;;5052236;28;20507;-32
2022/11/27 02:15:49;;;;;;;20.08;7.00;;;4.90;99.90;;;;;;5053906;28;20106;-32
2022/11/27 02:18:44;;;;;;;19.02;7.55;;;5.00;99.90;;;;;;5053669;28;20052;-31
2022/11/27 02:21:28;;;;;;;23.15;7.07;;;4.90;99.90;;;;;;5052100;28;20059;-32
2022/11/27 02:24:01;;;;;;;21.67;6.57;;;5.00;99.90;;;;;;5053626;28;20084;-32
2022/11/27 02:26:48;;;;;;;18.63;6.80;;;5.00;99.90;;;;;;5052739;28;20049;-32
2022/11/27 02:29:22;;;;;;;19.38;6.85;;;5.00;99.90;;;;;;5054462;28;20067;-32
2022/11/27 02:31:47;;;;;;;23.55;6.88;;;5.00;99.90;;;;;;5056672;28;20052;-32
2022/11/27 02:34:28;;;;;;;16.00;6.63;;;5.10;99.90;;;;;;5056600;28;20114;-32
2022/11/27 02:37:01;;;;;;;19.73;6.20;;;5.10;99.90;;;;;;5056854;28;20049;-33
2022/11/27 02:39:40;;;;;;;23.00;7.25;;;5.10;99.90;;;;;;5056559;28;20051;-32
2022/11/27 02:42:15;;;;;;;17.00;5.88;;;5.20;99.90;;;;;;5055264;28;20056;-32
2022/11/27 02:44:46;;;;;;;20.63;6.53;;;5.20;99.90;;;;;;5056672;28;20041;-32
2022/11/27 02:47:14;;;;;;;16.30;6.07;;;5.20;99.90;;;;;;5056988;28;20395;-32
2022/11/27 02:49:41;;;;;;;23.48;6.75;;;5.20;99.90;;;;;;5056278;28;20135;-32
2022/11/27 02:52:11;;;;;;;26.55;7.95;;;5.30;99.90;;;;;;5056265;28;20052;-32
2022/11/27 02:54:39;;;;;;;18.98;6.10;;;5.30;99.90;;;;;;5056784;28;20447;-32
2022/11/27 02:57:07;;;;;;;16.90;5.90;;;5.40;99.90;;;;;;5056304;28;20380;-32
2022/11/27 02:59:35;;;;;;;17.95;6.85;;;5.40;99.90;;;;;;5055966;28;20348;-32
2022/11/27 03:02:07;;;;;;;21.42;7.00;;;5.40;99.90;;;;;;5056030;28;20147;-32
2022/11/27 03:04:45;;;;;;;18.13;6.65;;;5.40;99.90;;;;;;5056353;28;20084;-31
2022/11/27 03:07:43;;;;;;;22.15;7.28;;;5.40;99.90;;;;;;5056019;28;20045;-32
2022/11/27 03:10:17;;;;;;;27.73;7.68;;;5.40;99.90;;;;;;5054322;28;20060;-33
2022/11/27 03:12:44;;;;;;;14.63;6.18;;;5.40;99.90;;;;;;5056486;28;20128;-32
2022/11/27 03:15:10;;;;;;;15.05;6.18;;;5.40;99.90;;;;;;5055149;28;20051;-32
2022/11/27 03:17:59;;;;;;;22.55;7.53;;;5.50;99.90;;;;;;5055678;28;20083;-32
2022/11/27 03:20:31;;;;;;;18.30;6.15;;;5.40;99.90;;;;;;5056621;28;20052;-32
2022/11/27 03:22:57;;;;;;;20.17;7.18;;;5.40;99.90;;;;;;5055583;28;20057;-32
2022/11/27 03:25:24;;;;;;;19.70;7.38;;;5.40;99.90;;;;;;5056651;28;20095;-32
2022/11/27 03:28:02;;;;;;;21.20;6.68;;;5.40;99.90;;;;;;5054695;28;20049;-32
2022/11/27 03:30:28;;;;;;;17.95;6.20;;;5.50;99.90;;;;;;5056173;28;20045;-33
2022/11/27 03:32:54;;;;;;;19.38;6.90;;;5.40;99.90;;;;;;5055788;28;20045;-32
2022/11/27 03:35:23;;;;;;;13.93;6.10;;;5.40;99.90;;;;;;5055522;28;20458;-32
2022/11/27 03:37:50;;;;;;;21.15;6.20;;;5.50;99.90;;;;;;5055697;28;20106;-33
2022/11/27 03:40:17;;;;;;;22.85;6.80;;;5.50;99.90;;;;;;5053858;28;20499;-32
2022/11/27 03:42:58;;;;;;;15.27;5.97;;;5.50;99.90;;;;;;5055325;28;20048;-32
2022/11/27 03:45:38;;;;;;;21.63;6.05;;;5.50;99.90;;;;;;5055826;28;20383;-33
2022/11/27 03:48:27;;;;;;;20.55;6.38;;;5.50;99.90;;;;;;5055278;28;20049;-32
2022/11/27 03:50:53;;;;;;;19.73;6.88;;;5.50;99.90;;;;;;5055238;28;20132;-32
2022/11/27 03:53:45;;;;;;;12.85;5.78;;;5.50;99.90;;;;;;5055126;28;20080;-33
2022/11/27 03:56:46;;;;;;;13.40;5.78;;;5.50;99.90;;;;;;5055687;28;20063;-32
2022/11/27 03:59:33;;;;;;;14.85;5.72;;;5.50;99.90;;;;;;5088519;28;20375;-31
2022/11/27 04:01:58;;;;;;;17.77;5.90;;;5.50;99.90;;;;;;5055024;28;20044;-32
2022/11/27 04:04:24;;;;;;;15.52;5.70;;;5.50;99.90;;;;;;5054854;28;20208;-32
2022/11/27 04:06:50;;;;;;;16.45;5.72;;;5.60;99.90;;;;;;5055713;28;20127;-32
2022/11/27 04:09:16;;;;;;;17.73;6.60;;;5.50;99.90;;;;;;5055319;28;20509;-32
2022/11/27 04:11:41;;;;;;;16.25;5.13;;;5.50;99.90;;;;;;5055294;28;20068;-32
2022/11/27 04:14:07;;;;;;;19.90;6.88;;;5.50;99.90;;;;;;5054740;28;20128;-31
2022/11/27 04:16:33;;;;;;;14.43;5.10;;;5.50;99.90;;;;;;5055406;28;20048;-32
2022/11/27 04:18:58;;;;;;;19.15;5.43;;;5.50;99.90;;;;;;5070658;28;20049;-31
2022/11/27 04:21:24;;;;;;;16.02;5.28;;;5.70;99.90;;;;;;5055132;28;20080;-32
2022/11/27 04:23:49;;;;;;;13.13;4.88;;;5.70;99.90;;;;;;5054560;28;20052;-32
2022/11/27 04:26:15;;;;;;;16.05;5.20;;;5.60;99.90;;;;;;5054951;28;20472;-32
2022/11/27 04:28:41;;;;;;;18.40;6.05;;;5.50;99.90;;;;;;5053757;28;20040;-33
2022/11/27 04:31:07;;;;;;;13.85;4.55;;;5.60;99.90;;;;;;5054391;28;20132;-32
2022/11/27 04:33:33;;;;;;;13.25;4.70;;;5.60;99.90;;;;;;5054048;28;20090;-32
2022/11/27 04:35:58;;;;;;;15.15;4.78;;;5.70;99.90;;;;;;5054321;28;20052;-32
2022/11/27 04:38:24;;;;;;;12.63;4.30;;;5.70;99.90;;;;;;5054828;28;20045;-32
2022/11/27 04:40:53;;;;;;;12.23;4.60;;;5.80;99.90;;;;;;5055323;28;20057;-32
2022/11/27 04:43:19;;;;;;;16.25;4.45;;;5.70;99.90;;;;;;5054176;28;20045;-32
2022/11/27 04:45:44;;;;;;;13.52;4.97;;;5.70;99.90;;;;;;5054097;28;20047;-32
2022/11/27 04:48:10;;;;;;;15.30;5.43;;;5.70;99.90;;;;;;5053955;28;20049;-32
2022/11/27 04:50:36;;;;;;;10.23;4.32;;;5.70;99.90;;;;;;5053790;28;20547;-32
2022/11/27 04:53:02;;;;;;;13.18;4.60;;;5.70;99.90;;;;;;5053357;28;20472;-32
2022/11/27 04:55:28;;;;;;;18.48;4.60;;;5.70;99.90;;;;;;5053993;28;20174;-32
2022/11/27 04:57:53;;;;;;;14.85;4.82;;;5.60;99.90;;;;;;5052271;28;20049;-32
2022/11/27 05:00:20;;;;;;;16.77;4.55;;;5.60;99.90;;;;;;5054465;28;20041;-32
2022/11/27 05:02:46;;;;;;;13.50;4.03;;;5.60;99.90;;;;;;5053853;28;20056;-32
2022/11/27 05:05:11;;;;;;;20.67;4.85;;;5.50;99.90;;;;;;5053734;28;20045;-32
2022/11/27 05:07:37;;;;;;;13.75;4.43;;;5.60;99.90;;;;;;5053840;28;20102;-32
2022/11/27 05:10:04;;;;;;;11.18;5.32;;;5.50;99.90;;;;;;5069001;28;20048;-32
2022/11/27 05:12:30;;;;;;;13.02;4.40;;;5.50;99.90;;;;;;5053655;28;20041;-34
2022/11/27 05:14:56;;;;;;;15.10;3.95;;;5.50;99.90;;;;;;5054242;28;20114;-32
2022/11/27 05:17:21;;;;;;;11.88;4.75;;;5.50;99.90;;;;;;5054117;28;20072;-32
2022/11/27 05:19:47;;;;;;;13.77;4.20;;;5.40;99.90;;;;;;5069197;28;20060;-32
2022/11/27 05:22:12;;;;;;;16.98;5.00;;;5.40;99.90;;;;;;5053659;28;20091;-31
2022/11/27 05:24:38;;;;;;;13.10;4.13;;;5.30;99.90;;;;;;5053561;28;20045;-32
2022/11/27 05:27:04;;;;;;;16.05;4.68;;;5.30;99.90;;;;;;5054143;28;20045;-32
2022/11/27 05:29:30;;;;;;;13.52;4.13;;;5.30;99.90;;;;;;5053571;28;20044;-33
2022/11/27 05:31:55;;;;;;;12.20;3.90;;;5.30;99.90;;;;;;5036846;28;20049;-34
2022/11/27 05:34:21;;;;;;;10.55;3.95;;;5.30;99.90;;;;;;5053208;28;20044;-32
2022/11/27 05:36:47;;;;;;;11.63;4.43;;;5.30;99.90;;;;;;5053522;28;20049;-32
2022/11/27 05:39:13;;;;;;;12.20;4.03;;;5.30;99.90;;;;;;5053419;28;20582;-32
2022/11/27 05:41:40;;;;;;;18.58;4.60;;;5.30;99.90;;;;;;5053502;28;20136;-32
2022/11/27 05:44:06;;;;;;;20.00;4.43;;;5.50;99.90;;;;;;5052272;28;20058;-31
2022/11/27 05:46:32;;;;;;;10.60;4.22;;;5.40;99.90;;;;;;5053317;28;20041;-32
2022/11/27 05:48:58;;;;;;;13.27;5.05;;;5.40;99.90;;;;;;5053390;28;20132;-32
2022/11/27 05:51:24;;;;;;;15.48;4.43;;;5.30;99.90;;;;;;5069083;28;20127;-32
2022/11/27 05:53:49;;;;;;;14.13;3.85;;;5.40;99.90;;;;;;5053872;28;20497;-32
2022/11/27 05:56:17;;;;;;;13.48;3.65;;;5.40;99.90;;;;;;5053162;28;20061;-32
2022/11/27 05:58:45;;;;;;;11.98;3.88;;;5.40;99.90;;;;;;5053635;28;20045;-33
2022/11/27 06:01:13;;;;;;;10.82;4.10;;;5.40;99.90;;;;;;5053297;28;20080;-32
2022/11/27 06:03:39;;;;;;;10.95;3.95;;;5.40;99.90;;;;;;5055602;28;20045;-32
2022/11/27 06:06:10;;;;;;;14.38;4.07;;;5.40;99.90;;;;;;5072249;28;20133;-32
2022/11/27 06:08:37;;;;;;;14.38;4.22;;;5.40;99.90;;;;;;5057456;28;20080;-31
2022/11/27 06:11:12;;;;;;;11.85;4.00;;;5.40;99.90;;;;;;5057629;28;20379;-32
2022/11/27 06:13:38;;;;;;;7.70;2.85;;;5.40;99.90;;;;;;5057071;28;20133;-32
2022/11/27 06:16:10;;;;;;;12.32;3.50;;;5.40;99.90;;;;;;5072406;28;20051;-32
2022/11/27 06:18:35;;;;;;;13.00;3.28;;;5.40;99.90;;;;;;5057050;28;20124;-33
2022/11/27 06:21:09;;;;;;;14.75;3.78;;;5.40;99.90;;;;;;5056917;28;20135;-33
2022/11/27 06:23:35;;;;;;;12.30;3.60;;;5.40;99.90;;;;;;5056886;28;20080;-32
2022/11/27 06:26:14;;;;;;;12.15;3.45;;;5.50;99.90;;;;;;5056759;28;20088;-32
2022/11/27 06:28:40;;;;;;;8.05;3.30;;;5.50;99.90;;;;;;5056607;28;20053;-32
2022/11/27 06:31:11;;;;;;;8.80;3.33;;;5.50;99.90;;;;;;5056683;28;20127;-32
2022/11/27 06:33:38;;;;;;;14.68;3.75;;;5.50;99.90;;;;;;5056638;28;20139;-32
2022/11/27 06:36:05;;;;;;;9.43;3.22;;;5.60;99.90;;;;;;5056638;28;20107;-33
2022/11/27 06:38:35;;;;;;;14.88;3.50;;;5.50;99.90;;;;;;5055577;28;20055;-32
2022/11/27 06:41:06;;;;;;;14.95;4.35;;;5.50;99.90;;;;;;5057344;28;20429;-33
2022/11/27 06:43:33;;;;;;;10.90;3.15;;;5.50;99.90;;;;;;5056416;28;20041;-32
2022/11/27 06:46:00;;;;;;;12.15;3.85;;;5.50;99.90;;;;;;5056306;28;20045;-32
2022/11/27 06:48:25;;;;;;;10.55;3.88;;;5.50;99.90;;;;;;5056371;28;20045;-32
2022/11/27 06:50:51;;;;;;;12.13;3.22;;;5.50;99.90;;;;;;5056359;28;20502;-33
2022/11/27 06:53:17;;;;;;;12.85;3.00;;;5.50;99.90;;;;;;5056328;28;20390;-32
2022/11/27 06:55:44;;;;;;;15.40;4.13;;;5.50;99.90;;;;;;5056063;28;20045;-33
2022/11/27 06:58:10;;;;;;;13.00;3.67;;;5.50;99.90;;;;;;5056526;28;20128;-32
2022/11/27 07:00:36;;;;;;;15.32;4.38;;;5.50;99.90;;;;;;5056147;28;20084;-32
2022/11/27 07:03:01;;;;;;;10.07;3.80;;;5.50;99.90;;;;;;5056646;28;20052;-32
2022/11/27 07:05:28;;;;;;;13.60;4.07;;;5.50;99.90;;;;;;5055970;28;20045;-32
2022/11/27 07:07:54;;;;;;;7.43;3.50;;;5.50;99.90;;;;;;5056300;28;20041;-32
2022/11/27 07:10:20;;;;;;;11.82;3.60;;;5.50;99.90;;;;;;5056031;28;20084;-32
2022/11/27 07:12:46;;;;;;;10.50;3.42;;;5.50;99.90;;;;;;5055987;28;20402;-32
2022/11/27 07:15:12;;;;;;;10.88;4.10;;;5.50;99.90;;;;;;5071062;28;20110;-32
2022/11/27 07:17:38;;;;;;;12.48;3.75;;;5.50;99.90;;;;;;5055742;28;20048;-32
2022/11/27 07:20:04;;;;;;;11.18;3.83;;;5.50;99.90;;;;;;5055828;28;20537;-32
2022/11/27 07:22:31;;;;;;;10.05;2.88;;;5.60;99.90;;;;;;5055417;28;20495;-32
2022/11/27 07:24:57;;;;;;;8.45;3.03;;;5.60;99.90;;;;;;5056441;28;20053;-32
2022/11/27 07:27:23;;;;;;;8.25;2.95;;;5.60;99.90;;;;;;5055338;28;20456;-32
2022/11/27 07:29:49;;;;;;;9.98;3.85;;;5.60;99.90;;;;;;5055616;28;20049;-32
2022/11/27 07:32:14;;;;;;;10.15;3.50;;;5.60;99.90;;;;;;5055595;28;20093;-32
2022/11/27 07:34:40;;;;;;;9.38;3.47;;;5.50;99.90;;;;;;5055669;28;20094;-32
2022/11/27 07:37:06;;;;;;;14.48;4.22;;;5.50;99.90;;;;;;5055729;28;20110;-33
2022/11/27 07:39:31;;;;;;;13.50;3.95;;;5.50;99.90;;;;;;5055718;28;20110;-32
2022/11/27 07:41:57;;;;;;;11.77;4.07;;;5.50;99.90;;;;;;5055651;28;20048;-33
2022/11/27 07:44:23;;;;;;;11.95;3.67;;;5.50;99.90;;;;;;5055300;28;20047;-32
2022/11/27 07:46:48;;;;;;;12.98;4.28;;;5.50;99.90;;;;;;5055292;28;20399;-32
2022/11/27 07:49:14;;;;;;;13.85;4.13;;;5.50;99.90;;;;;;5055306;28;20131;-32
2022/11/27 07:51:40;;;;;;;14.00;4.45;;;5.40;99.90;;;;;;5055461;28;20041;-32
2022/11/27 07:54:06;;;;;;;15.18;4.07;;;5.50;99.90;;;;;;5055695;28;20127;-32
2022/11/27 07:56:31;;;;;;;10.15;3.47;;;5.60;99.90;;;;;;5054811;28;20065;-32
2022/11/27 07:58:57;;;;;;;9.77;3.70;;;5.60;99.90;;;;;;5055617;28;20045;-32
2022/11/27 08:01:23;;;;;;;18.27;3.75;;;5.70;99.90;;;;;;5054862;28;20045;-32
2022/11/27 08:03:49;;;;;;;10.45;3.85;;;5.70;99.90;;;;;;5054975;28;20068;-33
2022/11/27 08:06:17;;;;;;;13.07;3.92;;;5.70;99.90;;;;;;5054869;28;20491;-32
2022/11/27 08:08:43;;;;;;;12.75;4.28;;;5.70;99.90;;;;;;5054853;28;20045;-32
2022/11/27 08:11:17;;;;;;;8.18;3.90;;;5.70;99.90;;;;;;5054716;28;20498;-32
2022/11/27 08:13:43;;;;;;;12.75;4.30;;;5.70;99.90;;;;;;5069639;28;20495;-32
2022/11/27 08:16:08;;;;;;;9.25;3.80;;;5.60;99.90;;;;;;5054171;28;20045;-32
2022/11/27 08:18:34;;;;;;;17.67;4.10;;;5.70;99.90;;;;;;5054637;28;20045;-32
2022/11/27 08:21:00;;;;;;;12.95;4.63;;;5.70;99.90;;;;;;5054882;28;20045;-32
2022/11/27 08:23:25;;;;;;;12.13;4.53;;;5.80;99.90;;;;;;5055104;28;20060;-32
2022/11/27 08:25:51;;;;;;;15.23;4.50;;;5.70;99.90;;;;;;5054065;28;20468;-32
2022/11/27 08:28:17;;;;;;;12.52;4.32;;;5.70;99.90;;;;;;5055025;28;20040;-32
2022/11/27 08:30:42;;;;;;;15.27;4.18;;;5.60;99.90;;;;;;5054458;28;20080;-32
2022/11/27 08:33:09;;;;;;;15.48;5.00;;;5.60;99.90;;;;;;5054462;28;20049;-32
2022/11/27 08:35:35;;;;;;;12.77;4.60;;;5.60;99.90;;;;;;5054380;28;20049;-32
2022/11/27 08:38:01;;;;;;;14.45;4.75;;;5.60;99.90;;;;;;5054803;28;20045;-31
2022/11/27 08:40:26;;;;;;;15.40;4.70;;;5.60;99.90;;;;;;5053932;28;20060;-32
2022/11/27 08:42:52;;;;;;;12.68;5.47;;;5.60;99.90;;;;;;5054741;28;20128;-32
2022/11/27 08:45:17;;;;;;;9.82;4.50;;;5.70;99.90;;;;;;5054645;28;20467;-31
2022/11/27 08:47:43;;;;;;;13.52;5.55;;;5.60;99.90;;;;;;5054406;28;20040;-32
2022/11/27 08:50:09;;;;;;;11.32;5.05;;;5.60;99.90;;;;;;5054062;28;20133;-31
2022/11/27 08:52:35;;;;;;;17.17;4.90;;;5.60;99.90;;;;;;5053136;28;20081;-32
2022/11/27 08:55:01;;;;;;;12.90;4.72;;;5.60;99.90;;;;;;5054021;28;20510;-33
2022/11/27 08:57:26;;;;;;;14.77;4.35;;;5.60;99.90;;;;;;5053723;28;20068;-32
2022/11/27 08:59:52;;;;;;;16.08;4.97;;;5.70;99.90;;;;;;5052960;28;20053;-32
2022/11/27 09:02:18;;;;;;;13.63;5.10;;;5.70;99.90;;;;;;5053911;28;20056;-32
2022/11/27 09:04:43;;;;;;;12.93;5.30;;;5.60;99.90;;;;;;5052825;28;20045;-32
2022/11/27 09:07:12;;;;;;;10.00;4.90;;;5.70;99.90;;;;;;5069336;28;20049;-32
2022/11/27 09:09:38;;;;;;;10.48;4.85;;;5.70;99.90;;;;;;5053833;28;20123;-32
2022/11/27 09:12:04;;;;;;;13.27;4.95;;;5.70;99.90;;;;;;5053791;28;20132;-32
2022/11/27 09:14:30;;;;;;;12.10;5.32;;;5.70;99.90;;;;;;5054297;28;20128;-32
2022/11/27 09:16:55;;;;;;;15.10;5.50;;;5.70;99.90;;;;;;5053327;28;20049;-32
2022/11/27 09:19:21;;;;;;;13.82;4.72;;;5.70;99.90;;;;;;5054296;28;20049;-32
2022/11/27 09:21:49;;;;;;;14.60;5.90;;;5.70;99.90;;;;;;5053670;28;20122;-32
2022/11/27 09:24:15;;;;;;;11.10;5.18;;;5.70;99.90;;;;;;5053649;28;20053;-32
2022/11/27 09:26:41;;;;;;;12.63;6.20;;;5.70;99.90;;;;;;5052586;28;20111;-31
2022/11/27 09:29:06;;;;;;;14.27;5.70;;;5.70;99.90;;;;;;5053595;28;20088;-32
2022/11/27 09:31:32;;;;;;;14.13;5.78;;;5.70;99.90;;;;;;5054127;28;20051;-31
2022/11/27 09:33:58;;;;;;;17.13;5.90;;;5.70;99.90;;;;;;5053543;28;20388;-31
2022/11/27 09:36:24;;;;;;;11.85;5.70;;;5.60;99.90;;;;;;5052393;28;20049;-30
2022/11/27 09:38:51;;;;;;;15.57;6.60;;;5.60;99.90;;;;;;5057789;28;20049;-32
2022/11/27 09:41:35;;;;;;;13.68;6.32;;;5.60;99.90;;;;;;5057931;28;20054;-30
2022/11/27 09:44:09;;;;;;;14.85;5.97;;;5.60;99.90;;;;;;5057694;28;20102;-30
2022/11/27 09:46:38;;;;;;;15.25;6.68;;;5.60;99.90;;;;;;5056625;28;20136;-30
2022/11/27 09:49:11;;;;;;;14.45;6.80;;;5.60;99.90;;;;;;5057484;28;20056;-30
2022/11/27 09:51:41;;;;;;;;;;;5.60;99.90;;;;;;5058806;28;20387;-29
2022/11/27 09:54:12;;;;;;;13.43;6.30;;;5.50;99.90;;;;;;5057358;28;19956;-30
2022/11/27 09:56:40;;;;;;;13.85;6.57;;;5.50;99.90;;;;;;5057094;28;20057;-29
2022/11/27 09:59:14;;;;;;;16.67;6.75;;;5.50;99.90;;;;;;5057257;28;20518;-32
2022/11/27 10:01:40;;;;;;;16.95;6.93;;;5.50;99.90;;;;;;5058135;28;20098;-29
2022/11/27 10:04:11;;;;;;;16.05;6.75;;;5.50;99.90;;;;;;5057216;28;20459;-30
2022/11/27 10:07:01;;;;;;;14.32;6.50;;;5.50;99.90;;;;;;5057695;28;20120;-29
2022/11/27 10:09:52;;;;;;;14.23;6.32;;;5.50;99.90;;;;;;5077094;28;20044;-30
2022/11/27 10:12:30;;;;;;;18.58;7.45;;;5.50;99.90;;;;;;5077134;28;20056;-30
2022/11/27 10:15:14;;;;;;;15.35;6.55;;;5.50;99.90;;;;;;5077062;28;20044;-29
2022/11/27 10:18:35;;;;;;;15.13;7.18;;;5.50;99.90;;;;;;5076867;28;20051;-31
2022/11/27 10:21:36;;;;;;;18.30;6.95;;;5.50;99.90;;;;;;5071735;28;20057;-31
2022/11/27 10:24:12;;;;;;;19.85;7.43;;;5.50;99.90;;;;;;5069632;28;20056;-31
2022/11/27 10:26:45;;;;;;;19.00;8.23;;;5.50;99.90;;;;;;5077244;28;20045;-31
2022/11/27 10:29:32;;;;;;;18.92;6.97;;;5.50;99.90;;;;;;5076795;28;20056;-30
2022/11/27 10:32:13;;;;;;;18.08;8.45;;;5.50;99.90;;;;;;5076697;28;20482;-30
2022/11/27 10:34:44;;;;;;;22.00;7.90;;;5.50;99.90;;;;;;5077288;28;20131;-31
2022/11/27 10:37:35;;;;;;;18.00;8.18;;;5.60;99.90;;;;;;5075676;28;20058;-30
2022/11/27 10:40:10;;;;;;;24.13;8.57;;;5.60;99.90;;;;;;5077438;28;20045;-32
2022/11/27 10:43:17;;;;;;;20.17;8.50;;;5.60;99.90;;;;;;5075406;28;20058;-31
2022/11/27 10:45:53;;;;;;;16.05;7.05;;;5.60;99.90;;;;;;5068025;28;20064;-31
2022/11/27 10:48:20;;;;;;;18.45;7.80;;;5.60;99.90;;;;;;5077060;28;20098;-31
2022/11/27 10:50:45;;;;;;;19.13;8.68;;;5.60;99.90;;;;;;5075837;28;20049;-31
2022/11/27 10:53:31;;;;;;;18.02;8.10;;;5.70;99.90;;;;;;5076039;28;20060;-31
2022/11/27 10:56:03;;;;;;;19.55;9.18;;;5.70;99.90;;;;;;5074953;28;20557;-31
2022/11/27 10:58:46;;;;;;;19.60;8.68;;;5.70;99.90;;;;;;5076254;28;20053;-32
2022/11/27 11:01:17;;;;;;;17.80;7.97;;;5.70;99.90;;;;;;5075664;28;20048;-31
2022/11/27 11:03:43;;;;;;;17.23;8.45;;;5.80;99.90;;;;;;5076487;28;20506;-31
2022/11/27 11:06:31;;;;;;;16.60;7.57;;;5.70;99.90;;;;;;5076075;28;20080;-32
2022/11/27 11:09:02;;;;;;;19.77;7.80;;;5.70;99.90;;;;;;5075970;28;20056;-32
2022/11/27 11:11:28;;;;;;;21.30;8.70;;;5.70;99.90;;;;;;5076010;28;20048;-32
2022/11/27 11:13:54;;;;;;;20.42;9.02;;;5.80;99.90;;;;;;5075986;28;20098;-33
2022/11/27 11:16:29;;;;;;;18.15;8.60;;;5.80;99.90;;;;;;5074722;28;20049;-33
2022/11/27 11:18:56;;;;;;;21.02;8.30;;;5.80;99.90;;;;;;5076144;28;20091;-32
2022/11/27 11:21:22;;;;;;;18.92;8.52;;;5.90;99.90;;;;;;5075881;28;20113;-32
2022/11/27 11:23:58;;;;;;;17.55;7.82;;;5.80;99.90;;;;;;5074617;28;20135;-32
2022/11/27 11:26:44;;;;;;;15.80;8.15;;;5.90;99.90;;;;;;5075686;28;20048;-33
2022/11/27 11:29:39;;;;;;;15.13;7.93;;;5.90;99.90;;;;;;5076296;28;20395;-33
2022/11/27 11:32:08;;;;;;;18.92;7.60;;;5.90;99.90;;;;;;5075575;28;20049;-32
2022/11/27 11:34:34;;;;;;;16.95;8.68;;;5.90;99.90;;;;;;5075429;28;20052;-32
2022/11/27 11:37:03;;;;;;;20.23;8.98;;;6.00;99.90;;;;;;5074332;28;20048;-32
2022/11/27 11:39:32;;;;;;;14.50;7.80;;;6.00;99.90;;;;;;5075449;28;20054;-32
2022/11/27 11:41:58;;;;;;;17.67;8.25;;;6.00;99.90;;;;;;5075372;28;20044;-32
2022/11/27 11:44:32;;;;;;;16.52;8.40;;;6.00;99.90;;;;;;5075284;28;20044;-32
2022/11/27 11:46:57;;;;;;;15.02;8.32;;;6.00;99.90;;;;;;5076185;28;20051;-32
2022/11/27 11:49:25;;;;;;;21.55;8.98;;;6.10;99.90;;;;;;5075215;28;20048;-32
2022/11/27 11:51:58;;;;;;;19.52;8.38;;;6.00;99.90;;;;;;5075444;28;20390;-32
2022/11/27 11:54:24;;;;;;;;;;;6.00;99.90;;;;;;5076203;28;20088;-32
2022/11/27 11:56:51;;;;;;;15.95;7.78;;;6.10;99.90;;;;;;5075155;28;19966;-34
2022/11/27 11:59:38;;;;;;;16.77;7.63;;;6.10;99.90;;;;;;5075019;28;20501;-32
2022/11/27 12:02:48;;;;;;;16.08;8.02;;;6.10;99.90;;;;;;5074875;28;20433;-32
2022/11/27 12:05:48;;;;;;;15.57;7.05;;;6.10;99.90;;;;;;5058747;28;20056;-33
2022/11/27 12:08:38;;;;;;;14.95;6.85;;;6.10;99.90;;;;;;5074897;28;20391;-35
2022/11/27 12:11:15;;;;;;;16.05;7.25;;;6.10;99.90;;;;;;5074027;28;20048;-33
2022/11/27 12:13:43;;;;;;;15.02;7.63;;;6.10;99.90;;;;;;5074751;28;20044;-33
2022/11/27 12:16:36;;;;;;;16.08;7.50;;;6.10;99.90;;;;;;5074619;28;20048;-33
2022/11/27 12:19:20;;;;;;;15.38;7.63;;;6.10;99.90;;;;;;5074024;28;20055;-33
2022/11/27 12:22:07;;;;;;;15.85;7.35;;;6.20;99.90;;;;;;5074453;28;20130;-33
2022/11/27 12:25:01;;;;;;;15.60;7.20;;;6.20;99.90;;;;;;5074076;28;20423;-32
2022/11/27 12:27:51;;;;;;;13.93;7.07;;;6.20;99.90;;;;;;5075104;28;20123;-32
2022/11/27 12:30:22;;;;;;;15.27;7.15;;;6.20;99.90;;;;;;5075047;28;20045;-33
2022/11/27 12:32:56;;;;;;;15.75;8.63;;;6.30;99.90;;;;;;5074708;28;20060;-32
2022/11/27 12:35:41;;;;;;;13.95;7.07;;;6.30;99.90;;;;;;5073202;28;20048;-32
2022/11/27 12:38:13;;;;;;;12.63;6.93;;;6.40;99.90;;;;;;5075073;28;20048;-32
2022/11/27 12:41:03;;;;;;;17.25;7.00;;;6.30;99.90;;;;;;5074258;28;20102;-33
2022/11/27 12:43:35;;;;;;;15.70;7.30;;;6.40;99.90;;;;;;5074882;28;20059;-32
2022/11/27 12:46:15;;;;;;;16.20;7.60;;;6.30;99.90;;;;;;5074712;28;20040;-32
2022/11/27 12:48:43;;;;;;;15.07;7.03;;;6.30;99.90;;;;;;5074500;28;20068;-33
2022/11/27 12:51:22;;;;;;;13.95;6.97;;;6.30;99.90;;;;;;5074928;28;20115;-32
2022/11/27 12:54:11;;;;;;;17.15;7.72;;;6.30;99.90;;;;;;5074123;28;20044;-32
2022/11/27 12:56:49;;;;;;;16.30;7.15;;;6.30;99.90;;;;;;5073804;28;20069;-34
2022/11/27 12:59:33;;;;;;;14.43;6.85;;;6.30;99.90;;;;;;5074311;28;20066;-33
2022/11/27 13:02:02;;;;;;;;;;;6.30;99.90;;;;;;5075307;28;20059;-32
2022/11/27 13:04:46;;;;;;;15.10;7.05;;;6.30;99.90;;;;;;5073859;28;19924;-32
2022/11/27 13:07:22;;;;;;;13.38;7.82;;;6.30;99.90;;;;;;5073988;28;20048;-32